Time;durP1;ratioP1;P1;durP2;ratioP2;P2;SDS_P1;SDS_P2;PMS_P1;PMS_P2;Temp;Humidity;BMP_temperature;BMP_pressure;BME280_temperature;BME280_humidity;BME280_pressure;Samples;Min_cycle;Max_cycle;Signal;HPM_P1;HPM_P2
2024/04/17 00:01:20;;;;;;;;;;;;;;;4.47;67.03;98633.61;130343;1260;107931;-79
2024/04/17 00:04:23;;;;;;;;;;;;;;;4.48;67.08;98639.00;130355;1260;106892;-79
2024/04/17 00:07:27;;;;;;;;;;;;;;;4.48;67.13;98635.64;130312;1272;107601;-79
2024/04/17 00:10:31;;;;;;;;;;;;;;;4.47;67.12;98636.60;130259;1266;109399;-79
2024/04/17 00:13:36;;;;;;;;;;;;;;;4.44;67.10;98636.16;130331;1273;105631;-79
2024/04/17 00:16:40;;;;;;;;;;;;;;;4.42;67.21;98635.92;130361;1263;106701;-79
2024/04/17 00:19:43;;;;;;;;;;;;;;;4.40;67.30;98638.89;130300;1263;107479;-79
2024/04/17 00:22:47;;;;;;;;;;;;;;;4.39;67.25;98640.06;130269;1272;106338;-79
2024/04/17 00:25:51;;;;;;;;;;;;;;;4.38;67.32;98643.29;130270;1262;109224;-79
2024/04/17 00:28:54;;;;;;;;;;;;;;;4.34;67.17;98645.80;130298;1273;108716;-79
2024/04/17 00:31:58;;;;;;;;;;;;;;;4.32;67.39;98647.73;130314;1263;108603;-79
2024/04/17 00:35:02;;;;;;;;;;;;;;;4.30;67.46;98644.05;130284;1272;107827;-79
2024/04/17 00:38:06;;;;;;;;;;;;;;;4.29;67.48;98641.70;130277;1262;106434;-79
2024/04/17 00:41:10;;;;;;;;;;;;;;;4.25;67.25;98639.16;130228;1273;109203;-79
2024/04/17 00:44:14;;;;;;;;;;;;;;;4.22;67.68;98632.95;130293;1271;106461;-79
2024/04/17 00:47:17;;;;;;;;;;;;;;;4.19;67.86;98637.49;130308;1264;107520;-79
2024/04/17 00:50:21;;;;;;;;;;;;;;;4.17;67.92;98635.23;130332;1260;107808;-79
2024/04/17 00:53:27;;;;;;;;;;;;;;;4.18;67.79;98639.86;130315;1273;107527;-79
2024/04/17 00:56:31;;;;;;;;;;;;;;;4.15;67.58;98645.44;130339;1272;106660;-80
2024/04/17 00:59:35;;;;;;;;;;;;;;;4.11;67.61;98649.34;130262;1260;107009;-79
2024/04/17 01:02:39;;;;;;;;;;;;;;;4.09;67.92;98645.80;130144;1264;106595;-80
2024/04/17 01:05:43;;;;;;;;;;;;;;;4.07;67.92;98646.39;130023;1263;106463;-79
2024/04/17 01:08:47;;;;;;;;;;;;;;;4.04;68.14;98648.08;130345;1263;107761;-80
2024/04/17 01:11:51;;;;;;;;;;;;;;;4.02;68.28;98647.57;130609;1264;105558;-80
2024/04/17 01:14:55;;;;;;;;;;;;;;;4.03;68.26;98641.15;130582;1273;107663;-80
2024/04/17 01:17:59;;;;;;;;;;;;;;;4.04;68.36;98640.48;130597;1262;106600;-80
2024/04/17 01:21:03;;;;;;;;;;;;;;;4.09;68.47;98638.42;130294;1273;106346;-79
2024/04/17 01:24:07;;;;;;;;;;;;;;;4.17;68.46;98641.00;130274;1273;107931;-79
2024/04/17 01:27:11;;;;;;;;;;;;;;;4.23;68.44;98635.31;130578;1273;106690;-80
2024/04/17 01:30:15;;;;;;;;;;;;;;;4.32;68.38;98632.32;130289;1263;106458;-80
2024/04/17 01:33:19;;;;;;;;;;;;;;;4.41;68.42;98640.07;130340;1265;107785;-80
2024/04/17 01:36:22;;;;;;;;;;;;;;;4.48;68.27;98635.12;130376;1272;107765;-80
2024/04/17 01:39:26;;;;;;;;;;;;;;;4.54;68.14;98640.44;130322;1260;106753;-80
2024/04/17 01:42:30;;;;;;;;;;;;;;;4.60;67.99;98642.86;130344;1263;108533;-79
2024/04/17 01:45:34;;;;;;;;;;;;;;;4.61;67.84;98645.64;130273;1261;107378;-79
2024/04/17 01:48:37;;;;;;;;;;;;;;;4.58;67.88;98643.94;130309;1264;108720;-79
2024/04/17 01:51:41;;;;;;;;;;;;;;;4.56;67.90;98641.48;130271;1261;105899;-80
2024/04/17 01:54:45;;;;;;;;;;;;;;;4.55;67.82;98642.71;130279;1264;106461;-78
2024/04/17 01:57:48;;;;;;;;;;;;;;;4.48;67.78;98641.64;130290;1261;106909;-80
2024/04/17 02:00:52;;;;;;;;;;;;;;;4.46;67.89;98643.41;130399;1272;106986;-79
2024/04/17 02:03:56;;;;;;;;;;;;;;;4.40;67.88;98635.79;130287;1266;108709;-79
2024/04/17 02:07:00;;;;;;;;;;;;;;;4.31;67.79;98627.92;130324;1264;107779;-79
2024/04/17 02:10:04;;;;;;;;;;;;;;;4.18;67.60;98631.94;130364;1263;107386;-79
2024/04/17 02:13:07;;;;;;;;;;;;;;;4.08;67.95;98631.55;130272;1270;106381;-79
2024/04/17 02:16:11;;;;;;;;;;;;;;;3.99;67.77;98629.79;130270;1264;107755;-79
2024/04/17 02:19:15;;;;;;;;;;;;;;;3.90;67.97;98620.73;130234;1273;106954;-79
2024/04/17 02:22:19;;;;;;;;;;;;;;;3.86;67.93;98618.36;130360;1264;106282;-79
2024/04/17 02:25:22;;;;;;;;;;;;;;;3.82;67.75;98618.75;130391;1264;108704;-80
2024/04/17 02:28:26;;;;;;;;;;;;;;;3.75;67.63;98618.19;130543;1260;106600;-79
2024/04/17 02:31:30;;;;;;;;;;;;;;;3.68;67.74;98621.39;130199;1273;106883;-78
2024/04/17 02:34:34;;;;;;;;;;;;;;;3.59;67.55;98622.39;130243;1264;106504;-78
2024/04/17 02:37:46;;;;;;;;;;;;;;;3.53;67.84;98615.73;130269;1271;106815;-80
2024/04/17 02:40:50;;;;;;;;;;;;;;;3.52;67.73;98617.42;130339;1264;107519;-77
2024/04/17 02:43:54;;;;;;;;;;;;;;;3.48;67.94;98617.98;130546;1264;106498;-84
2024/04/17 02:47:00;;;;;;;;;;;;;;;3.45;67.82;98620.71;130575;1261;340825;-89
2024/04/17 02:50:05;;;;;;;;;;;;;;;3.42;67.83;98624.57;130855;1262;107941;-87
2024/04/17 02:53:09;;;;;;;;;;;;;;;3.38;67.72;98620.90;130768;1261;107569;-87
2024/04/17 02:56:13;;;;;;;;;;;;;;;3.33;67.83;98618.20;130844;1263;107659;-86
2024/04/17 02:59:16;;;;;;;;;;;;;;;3.27;67.86;98616.46;130894;1262;107659;-87
2024/04/17 03:02:22;;;;;;;;;;;;;;;3.26;67.93;98621.19;130829;1264;107056;-87
2024/04/17 03:05:26;;;;;;;;;;;;;;;3.25;67.99;98619.72;130759;1265;107246;-87
2024/04/17 03:08:30;;;;;;;;;;;;;;;3.23;68.05;98618.30;130840;1263;107511;-87
2024/04/17 03:11:34;;;;;;;;;;;;;;;3.22;68.52;98612.44;130744;1260;106503;-88
2024/04/17 03:14:38;;;;;;;;;;;;;;;3.20;68.67;98609.42;130725;1262;107324;-88
2024/04/17 03:17:42;;;;;;;;;;;;;;;3.21;68.73;98608.63;130784;1260;107722;-88
2024/04/17 03:20:46;;;;;;;;;;;;;;;3.22;68.58;98603.48;130713;1260;107037;-88
2024/04/17 03:23:49;;;;;;;;;;;;;;;3.21;68.47;98604.42;130655;1264;107539;-88
2024/04/17 03:26:54;;;;;;;;;;;;;;;3.19;68.47;98611.51;130605;1264;107401;-89
2024/04/17 03:29:58;;;;;;;;;;;;;;;3.15;68.35;98614.66;130595;1264;107521;-89
2024/04/17 03:33:02;;;;;;;;;;;;;;;3.13;68.36;98619.95;130684;1259;107588;-89
2024/04/17 03:36:06;;;;;;;;;;;;;;;3.10;68.23;98627.23;130705;1264;107534;-88
2024/04/17 03:39:10;;;;;;;;;;;;;;;3.06;68.26;98634.63;130757;1263;107713;-88
2024/04/17 03:42:14;;;;;;;;;;;;;;;3.03;68.24;98639.02;130768;1260;107509;-87
2024/04/17 03:45:18;;;;;;;;;;;;;;;2.99;68.38;98641.41;130773;1259;107629;-87
2024/04/17 03:48:22;;;;;;;;;;;;;;;3.00;68.45;98637.17;130658;1258;106394;-88
2024/04/17 03:51:26;;;;;;;;;;;;;;;2.99;68.37;98632.64;130538;1260;107561;-88
2024/04/17 03:54:30;;;;;;;;;;;;;;;3.00;68.52;98630.34;130857;1263;107510;-88
2024/04/17 03:57:33;;;;;;;;;;;;;;;2.99;68.29;98640.38;130762;1263;106066;-88
2024/04/17 04:00:37;;;;;;;;;;;;;;;3.01;68.59;98645.48;130768;1258;106495;-88
2024/04/17 04:03:41;;;;;;;;;;;;;;;3.04;68.62;98650.83;130860;1258;107699;-87
2024/04/17 04:06:45;;;;;;;;;;;;;;;3.07;68.52;98650.21;130739;1262;107479;-85
2024/04/17 04:09:50;;;;;;;;;;;;;;;3.06;68.42;98654.64;130710;1262;106399;-85
2024/04/17 04:12:53;;;;;;;;;;;;;;;3.10;68.64;98651.33;130644;1257;107845;-85
2024/04/17 04:15:59;;;;;;;;;;;;;;;3.14;68.80;98657.95;130832;1257;107720;-86
2024/04/17 04:19:03;;;;;;;;;;;;;;;3.19;69.01;98662.55;130487;1261;109284;-85
2024/04/17 04:22:07;;;;;;;;;;;;;;;3.26;68.98;98664.92;130523;1260;106854;-85
2024/04/17 04:25:11;;;;;;;;;;;;;;;3.34;69.14;98664.13;130761;1259;107674;-85
2024/04/17 04:28:14;;;;;;;;;;;;;;;3.45;69.44;98670.85;130538;1264;108573;-86
2024/04/17 04:31:18;;;;;;;;;;;;;;;3.59;69.42;98673.45;130589;1257;106539;-85
2024/04/17 04:34:22;;;;;;;;;;;;;;;3.73;69.64;98679.95;130575;1263;108533;-85
2024/04/17 04:37:26;;;;;;;;;;;;;;;3.88;69.79;98686.55;130667;1257;108642;-85
2024/04/17 04:40:30;;;;;;;;;;;;;;;4.01;70.19;98687.80;130627;1260;107537;-86
2024/04/17 04:43:34;;;;;;;;;;;;;;;4.15;70.42;98685.04;130422;1262;107736;-87
2024/04/17 04:46:38;;;;;;;;;;;;;;;4.30;70.74;98685.52;130702;1258;108727;-75
2024/04/17 04:49:41;;;;;;;;;;;;;;;4.41;70.85;98696.86;130440;1261;107858;-77
2024/04/17 04:52:46;;;;;;;;;;;;;;;4.49;71.30;98691.55;130444;1259;107449;-77
2024/04/17 04:55:57;;;;;;;;;;;;;;;4.56;71.49;98696.45;130492;1263;108470;-77
2024/04/17 04:59:01;;;;;;;;;;;;;;;4.67;71.37;98691.63;134578;1257;106606;-75
2024/04/17 05:02:04;;;;;;;;;;;;;;;4.87;71.54;98698.86;134557;1257;107645;-76
2024/04/17 05:05:08;;;;;;;;;;;;;;;5.08;71.74;98704.77;134486;1259;108718;-76
2024/04/17 05:08:12;;;;;;;;;;;;;;;5.38;71.59;98708.63;133157;1259;107245;-76
2024/04/17 05:11:16;;;;;;;;;;;;;;;5.66;71.60;98713.85;130428;1262;108095;-76
2024/04/17 05:14:19;;;;;;;;;;;;;;;5.98;71.45;98720.40;130349;1264;106712;-76
2024/04/17 05:17:23;;;;;;;;;;;;;;;6.29;71.65;98722.42;130292;1264;107047;-75
2024/04/17 05:20:27;;;;;;;;;;;;;;;6.60;71.63;98728.84;130211;1259;108497;-75
2024/04/17 05:23:31;;;;;;;;;;;;;;;6.87;71.48;98734.50;130235;1260;106499;-76
2024/04/17 05:26:34;;;;;;;;;;;;;;;6.93;71.59;98734.04;130353;1263;107652;-75
2024/04/17 05:29:38;;;;;;;;;;;;;;;6.89;71.67;98739.55;130271;1262;108740;-75
2024/04/17 05:32:42;;;;;;;;;;;;;;;6.84;71.72;98736.90;130227;1261;106751;-76
2024/04/17 05:35:46;;;;;;;;;;;;;;;6.94;71.49;98735.42;130216;1264;108463;-77
2024/04/17 05:38:50;;;;;;;;;;;;;;;7.01;71.60;98730.98;130310;1262;107208;-75
2024/04/17 05:41:53;;;;;;;;;;;;;;;6.87;71.66;98735.80;130177;1262;108462;-74
2024/04/17 05:44:57;;;;;;;;;;;;;;;6.91;71.73;98741.61;130222;1262;108660;-75
2024/04/17 05:48:01;;;;;;;;;;;;;;;6.93;71.92;98742.27;130242;1259;108654;-75
2024/04/17 05:51:05;;;;;;;;;;;;;;;7.06;71.43;98737.02;130220;1264;106768;-76
2024/04/17 05:54:09;;;;;;;;;;;;;;;7.09;71.51;98740.52;130222;1260;107742;-76
2024/04/17 05:57:13;;;;;;;;;;;;;;;7.01;71.43;98739.77;130265;1262;106412;-73
2024/04/17 06:00:18;;;;;;;;;;;;;;;6.97;71.45;98739.19;130248;1264;108431;-74
2024/04/17 06:03:22;;;;;;;;;;;;;;;7.07;71.71;98734.69;130364;1259;107792;-73
2024/04/17 06:06:26;;;;;;;;;;;;;;;7.31;71.56;98735.25;130229;1264;107763;-77
2024/04/17 06:09:30;;;;;;;;;;;;;;;7.69;71.55;98731.48;130286;1260;106718;-75
2024/04/17 06:12:34;;;;;;;;;;;;;;;8.16;71.26;98737.10;130239;1262;108772;-76
2024/04/17 06:15:38;;;;;;;;;;;;;;;8.54;70.84;98734.91;130321;1264;107788;-75
2024/04/17 06:18:42;;;;;;;;;;;;;;;8.79;70.49;98734.77;130241;1263;107658;-74
2024/04/17 06:21:45;;;;;;;;;;;;;;;8.81;69.77;98737.14;130304;1262;108725;-77
2024/04/17 06:24:49;;;;;;;;;;;;;;;8.81;70.02;98743.98;130196;1259;108681;-75
2024/04/17 06:27:53;;;;;;;;;;;;;;;8.91;70.01;98740.08;130186;1264;107817;-76
2024/04/17 06:30:57;;;;;;;;;;;;;;;8.93;69.20;98742.95;130204;1264;107162;-77
2024/04/17 06:34:01;;;;;;;;;;;;;;;8.81;69.24;98747.94;130236;1264;106728;-77
2024/04/17 06:37:05;;;;;;;;;;;;;;;8.70;69.27;98752.83;130188;1261;107810;-77
2024/04/17 06:40:09;;;;;;;;;;;;;;;8.62;69.55;98752.21;130199;1266;107494;-76
2024/04/17 06:43:13;;;;;;;;;;;;;;;8.57;69.56;98759.96;130184;1262;108792;-76
2024/04/17 06:46:16;;;;;;;;;;;;;;;8.46;69.65;98767.93;130242;1264;107652;-74
2024/04/17 06:49:20;;;;;;;;;;;;;;;8.19;69.91;98768.87;130244;1262;107076;-78
2024/04/17 06:52:24;;;;;;;;;;;;;;;7.91;70.63;98773.38;130194;1262;107725;-82
2024/04/17 06:55:27;;;;;;;;;;;;;;;7.85;70.92;98777.12;130298;1262;108095;-82
2024/04/17 06:58:31;;;;;;;;;;;;;;;7.75;70.91;98779.90;130393;1261;108785;-81
2024/04/17 07:01:35;;;;;;;;;;;;;;;7.76;71.06;98784.46;130407;1262;106489;-81
2024/04/17 07:04:39;;;;;;;;;;;;;;;7.76;71.75;98786.58;130383;1260;107670;-80
2024/04/17 07:07:42;;;;;;;;;;;;;;;7.66;71.57;98786.11;130290;1262;108689;-80
2024/04/17 07:10:46;;;;;;;;;;;;;;;7.67;72.59;98786.31;130251;1264;108578;-80
2024/04/17 07:13:50;;;;;;;;;;;;;;;7.62;72.56;98787.21;130241;1262;108691;-80
2024/04/17 07:16:54;;;;;;;;;;;;;;;7.81;72.18;98787.09;130297;1260;106728;-80
2024/04/17 07:19:57;;;;;;;;;;;;;;;8.00;72.09;98789.21;130292;1261;107500;-80
2024/04/17 07:23:02;;;;;;;;;;;;;;;8.08;71.84;98787.85;129995;1264;108811;-80
2024/04/17 07:26:06;;;;;;;;;;;;;;;8.15;71.80;98790.92;130378;1257;107777;-79
2024/04/17 07:29:10;;;;;;;;;;;;;;;8.21;71.69;98794.23;130162;1262;108347;-80
2024/04/17 07:32:15;;;;;;;;;;;;;;;8.20;71.69;98794.07;130279;1262;108741;-82
2024/04/17 07:35:21;;;;;;;;;;;;;;;8.11;71.77;98796.14;130517;1262;108264;-81
2024/04/17 07:38:26;;;;;;;;;;;;;;;8.02;72.30;98798.90;130266;1261;108395;-80
2024/04/17 07:41:30;;;;;;;;;;;;;;;7.94;72.41;98796.80;130405;1263;108367;-80
2024/04/17 07:44:34;;;;;;;;;;;;;;;7.89;72.42;98796.65;130588;1257;106965;-79
2024/04/17 07:47:38;;;;;;;;;;;;;;;7.82;72.99;98802.75;130458;1262;108627;-81
2024/04/17 07:50:41;;;;;;;;;;;;;;;7.71;72.85;98803.39;130504;1261;106811;-81
2024/04/17 07:53:45;;;;;;;;;;;;;;;7.62;73.23;98814.70;130409;1263;106822;-81
2024/04/17 07:56:49;;;;;;;;;;;;;;;7.49;73.64;98822.52;130368;1264;107015;-81
2024/04/17 07:59:53;;;;;;;;;;;;;;;7.34;73.45;98819.89;130404;1262;108518;-82
2024/04/17 08:02:57;;;;;;;;;;;;;;;7.23;73.77;98823.41;130167;1259;108035;-81
2024/04/17 08:06:00;;;;;;;;;;;;;;;7.23;73.56;98826.69;130243;1262;107765;-80
2024/04/17 08:09:07;;;;;;;;;;;;;;;7.34;73.60;98823.00;130334;1262;107920;-78
2024/04/17 08:12:11;;;;;;;;;;;;;;;7.46;73.68;98827.05;130372;1258;108711;-80
2024/04/17 08:15:14;;;;;;;;;;;;;;;7.55;73.65;98826.63;130453;1262;106612;-80
2024/04/17 08:18:18;;;;;;;;;;;;;;;7.61;73.82;98828.77;130300;1261;106376;-82
2024/04/17 08:21:22;;;;;;;;;;;;;;;7.65;73.57;98833.79;130374;1262;106414;-82
2024/04/17 08:24:25;;;;;;;;;;;;;;;7.72;73.75;98831.10;130311;1262;107376;-81
2024/04/17 08:27:29;;;;;;;;;;;;;;;7.79;73.46;98835.06;130342;1262;105692;-83
2024/04/17 08:30:33;;;;;;;;;;;;;;;7.88;73.53;98829.16;130426;1257;108458;-83
2024/04/17 08:33:36;;;;;;;;;;;;;;;7.90;73.50;98834.59;130435;1273;107691;-83
2024/04/17 08:36:40;;;;;;;;;;;;;;;7.92;73.61;98836.48;130401;1262;107706;-81
2024/04/17 08:39:44;;;;;;;;;;;;;;;7.99;73.54;98840.02;130451;1259;106983;-81
2024/04/17 08:42:51;;;;;;;;;;;;;;;8.05;73.49;98841.48;130486;1259;108739;-81
2024/04/17 08:45:55;;;;;;;;;;;;;;;8.14;73.81;98840.39;130469;1262;108716;-82
2024/04/17 08:49:00;;;;;;;;;;;;;;;8.21;73.53;98842.85;130439;1262;107772;-82
2024/04/17 08:52:04;;;;;;;;;;;;;;;8.27;73.49;98843.63;130445;1262;107396;-81
2024/04/17 08:55:09;;;;;;;;;;;;;;;8.31;73.47;98842.85;130403;1262;106730;-82
2024/04/17 08:58:13;;;;;;;;;;;;;;;8.41;73.60;98845.70;130422;1262;108338;-82
2024/04/17 09:01:19;;;;;;;;;;;;;;;8.55;73.41;98845.65;130422;1262;107625;-84
2024/04/17 09:04:23;;;;;;;;;;;;;;;8.66;73.48;98844.20;130521;1262;107722;-83
2024/04/17 09:07:29;;;;;;;;;;;;;;;8.72;73.49;98845.15;130422;1258;107690;-86
2024/04/17 09:10:35;;;;;;;;;;;;;;;8.76;73.73;98844.59;130338;1257;107641;-83
2024/04/17 09:13:39;;;;;;;;;;;;;;;8.84;73.48;98848.70;130419;1257;108645;-82
2024/04/17 09:16:43;;;;;;;;;;;;;;;8.95;73.49;98850.57;130448;1262;108634;-83
2024/04/17 09:19:46;;;;;;;;;;;;;;;9.05;73.08;98854.11;130502;1260;107667;-85
2024/04/17 09:22:52;;;;;;;;;;;;;;;9.14;73.29;98856.73;130586;1262;106985;-83
2024/04/17 09:25:56;;;;;;;;;;;;;;;9.30;73.09;98857.03;130446;1262;108051;-83
2024/04/17 09:29:00;;;;;;;;;;;;;;;9.47;72.81;98853.78;130453;1261;108108;-83
2024/04/17 09:32:04;;;;;;;;;;;;;;;9.51;72.76;98859.22;130409;1262;107402;-84
2024/04/17 09:35:10;;;;;;;;;;;;;;;9.45;72.44;98862.20;130150;1261;108525;-83
2024/04/17 09:38:15;;;;;;;;;;;;;;;9.39;72.48;98865.75;130225;1259;106419;-83
2024/04/17 09:41:18;;;;;;;;;;;;;;;9.29;72.38;98867.83;130159;1264;107519;-84
2024/04/17 09:44:28;;;;;;;;;;;;;;;9.17;72.44;98875.60;130172;1259;106925;-83
2024/04/17 09:47:32;;;;;;;;;;;;;;;8.98;72.34;98877.23;130221;1264;107671;-82
2024/04/17 09:50:36;;;;;;;;;;;;;;;8.82;72.85;98882.08;130158;1264;106522;-83
2024/04/17 09:53:47;;;;;;;;;;;;;;;8.78;73.12;98879.35;130158;1260;106511;-84
2024/04/17 09:56:51;;;;;;;;;;;;;;;8.87;73.03;98880.98;130137;1263;106605;-82
2024/04/17 09:59:55;;;;;;;;;;;;;;;8.93;73.19;98881.15;130090;1265;109254;-83
2024/04/17 10:03:01;;;;;;;;;;;;;;;9.03;73.21;98885.12;130133;1259;107723;-82
2024/04/17 10:06:05;;;;;;;;;;;;;;;9.16;73.16;98887.74;130154;1263;105895;-83
2024/04/17 10:09:10;;;;;;;;;;;;;;;9.26;72.93;98889.00;130177;1264;107665;-83
2024/04/17 10:12:14;;;;;;;;;;;;;;;9.36;72.98;98890.42;130205;1265;106971;-84
2024/04/17 10:15:18;;;;;;;;;;;;;;;9.46;72.99;98892.08;130125;1259;108772;-83
2024/04/17 10:18:22;;;;;;;;;;;;;;;9.59;73.31;98893.19;130156;1264;107840;-84
2024/04/17 10:21:26;;;;;;;;;;;;;;;9.73;72.93;98892.92;130259;1264;107021;-84
2024/04/17 10:24:30;;;;;;;;;;;;;;;9.58;72.24;98903.38;130218;1263;106523;-83
2024/04/17 10:27:37;;;;;;;;;;;;;;;9.38;72.97;98905.44;130141;1260;106262;-83
2024/04/17 10:30:41;;;;;;;;;;;;;;;9.06;73.28;98907.30;130202;1264;108675;-83
2024/04/17 10:33:45;;;;;;;;;;;;;;;8.63;74.67;98912.16;130163;1259;107658;-83
2024/04/17 10:36:53;;;;;;;;;;;;;;;8.32;75.31;98914.56;130156;1265;107726;-83
2024/04/17 10:39:58;;;;;;;;;;;;;;;8.19;76.43;98923.64;130150;1263;107915;-84
2024/04/17 10:43:01;;;;;;;;;;;;;;;8.06;76.17;98931.47;130162;1260;107692;-83
2024/04/17 10:46:09;;;;;;;;;;;;;;;7.96;77.21;98932.59;130153;1259;108026;-83
2024/04/17 10:49:17;;;;;;;;;;;;;;;7.93;77.13;98935.58;130145;1259;107874;-84
2024/04/17 10:52:21;;;;;;;;;;;;;;;7.85;77.84;98937.81;130111;1264;108579;-83
2024/04/17 10:55:25;;;;;;;;;;;;;;;7.76;77.51;98937.10;130128;1264;106531;-83
2024/04/17 10:58:29;;;;;;;;;;;;;;;7.73;78.98;98940.55;130203;1264;106825;-84
2024/04/17 11:01:33;;;;;;;;;;;;;;;7.56;79.39;98946.46;130156;1266;106732;-83
2024/04/17 11:04:37;;;;;;;;;;;;;;;7.46;79.25;98946.66;130102;1264;106552;-83
2024/04/17 11:07:41;;;;;;;;;;;;;;;7.43;78.83;98955.09;130106;1263;108726;-83
2024/04/17 11:10:45;;;;;;;;;;;;;;;7.39;78.83;98953.09;130213;1263;107826;-84
2024/04/17 11:13:48;;;;;;;;;;;;;;;7.48;78.96;98958.01;130195;1265;106909;-84
2024/04/17 11:16:52;;;;;;;;;;;;;;;7.58;79.82;98960.80;130147;1259;107721;-83
2024/04/17 11:19:56;;;;;;;;;;;;;;;7.42;79.88;98963.21;130214;1259;108237;-83
2024/04/17 11:23:03;;;;;;;;;;;;;;;7.28;80.36;98966.77;130204;1265;107243;-83
2024/04/17 11:26:07;;;;;;;;;;;;;;;7.31;79.97;98969.33;129914;1275;107710;-83
2024/04/17 11:29:14;;;;;;;;;;;;;;;7.38;80.02;98971.44;130148;1265;106967;-84
2024/04/17 11:32:18;;;;;;;;;;;;;;;7.37;79.72;98975.71;130173;1264;107818;-84
2024/04/17 11:35:22;;;;;;;;;;;;;;;7.32;80.28;98978.25;130115;1263;108419;-83
2024/04/17 11:38:26;;;;;;;;;;;;;;;7.26;80.18;98979.58;130142;1266;106817;-84
2024/04/17 11:41:29;;;;;;;;;;;;;;;7.25;80.35;98981.46;130207;1263;107040;-84
2024/04/17 11:44:37;;;;;;;;;;;;;;;7.22;80.52;98985.67;130184;1264;108640;-83
2024/04/17 11:47:41;;;;;;;;;;;;;;;7.14;80.80;98989.53;130186;1259;106910;-83
2024/04/17 11:50:45;;;;;;;;;;;;;;;7.12;80.72;98995.27;130150;1260;107698;-83
2024/04/17 11:53:50;;;;;;;;;;;;;;;7.05;80.58;98999.98;130219;1264;108526;-83
2024/04/17 11:56:54;;;;;;;;;;;;;;;6.95;81.38;99002.64;130185;1259;108988;-84
2024/04/17 11:59:58;;;;;;;;;;;;;;;6.93;80.87;99003.95;130141;1260;107784;-83
2024/04/17 12:03:02;;;;;;;;;;;;;;;6.93;80.97;99006.23;130128;1263;106434;-83
2024/04/17 12:06:07;;;;;;;;;;;;;;;6.92;80.36;99012.48;130183;1259;109085;-84
2024/04/17 12:09:11;;;;;;;;;;;;;;;6.94;80.47;99015.29;130227;1264;106743;-83
2024/04/17 12:12:14;;;;;;;;;;;;;;;6.96;80.93;99013.81;130185;1260;109426;-83
2024/04/17 12:15:18;;;;;;;;;;;;;;;7.04;79.96;99012.52;130289;1259;107844;-83
2024/04/17 12:18:22;;;;;;;;;;;;;;;7.11;80.15;99016.02;130222;1257;107842;-84
2024/04/17 12:21:26;;;;;;;;;;;;;;;7.15;80.11;99018.11;130445;1258;106775;-84
2024/04/17 12:26:49;;;;;;;;;;;;;;;7.13;80.08;99018.48;130414;1261;107908;-83
2024/04/17 12:27:54;;;;;;;;;;;;;;;7.09;79.55;99024.20;130422;1260;107715;-83
2024/04/17 12:30:58;;;;;;;;;;;;;;;7.12;79.99;99023.20;130422;1261;107752;-83
2024/04/17 12:34:02;;;;;;;;;;;;;;;7.23;79.60;99025.40;130382;1262;107854;-84
2024/04/17 12:37:06;;;;;;;;;;;;;;;7.35;79.60;99025.92;130326;1262;106592;-83
2024/04/17 12:40:10;;;;;;;;;;;;;;;7.49;79.56;99023.30;130363;1262;108677;-83
2024/04/17 12:43:14;;;;;;;;;;;;;;;7.53;79.44;99025.56;130338;1259;107633;-84
2024/04/17 12:46:18;;;;;;;;;;;;;;;7.41;79.07;99024.02;130294;1259;108668;-83
2024/04/17 12:49:23;;;;;;;;;;;;;;;7.37;78.59;99025.17;130334;1259;108766;-83
2024/04/17 12:52:27;;;;;;;;;;;;;;;7.30;79.14;99027.66;130341;1259;106361;-83
2024/04/17 12:55:31;;;;;;;;;;;;;;;7.26;79.40;99030.28;130310;1264;106606;-83
2024/04/17 12:58:35;;;;;;;;;;;;;;;7.23;79.20;99029.61;130320;1263;107735;-83
2024/04/17 13:01:38;;;;;;;;;;;;;;;7.24;79.33;99033.86;130376;1260;108940;-82
2024/04/17 13:04:45;;;;;;;;;;;;;;;7.21;79.48;99037.73;130473;1262;107085;-83
2024/04/17 13:07:49;;;;;;;;;;;;;;;7.13;79.92;99038.08;130412;1262;106786;-85
2024/04/17 13:10:58;;;;;;;;;;;;;;;7.04;80.45;99037.21;130329;1259;107734;-84
2024/04/17 13:14:02;;;;;;;;;;;;;;;6.94;80.55;99038.30;130394;1259;107572;-83
2024/04/17 13:17:06;;;;;;;;;;;;;;;6.97;80.54;99038.65;130374;1259;108801;-83
2024/04/17 13:20:11;;;;;;;;;;;;;;;7.01;80.18;99044.07;130356;1262;106420;-83
2024/04/17 13:23:14;;;;;;;;;;;;;;;6.99;80.14;99041.81;130391;1262;107054;-83
2024/04/17 13:26:18;;;;;;;;;;;;;;;7.01;80.42;99041.20;130394;1260;106791;-83
2024/04/17 13:29:22;;;;;;;;;;;;;;;6.99;80.10;99040.55;130304;1259;108815;-84
2024/04/17 13:32:26;;;;;;;;;;;;;;;7.02;79.41;99043.27;130379;1262;107292;-81
2024/04/17 13:35:29;;;;;;;;;;;;;;;7.01;79.54;99042.30;130711;1257;107513;-84
2024/04/17 13:38:33;;;;;;;;;;;;;;;7.09;79.48;99045.79;130421;1272;106448;-83
2024/04/17 13:41:37;;;;;;;;;;;;;;;7.12;79.48;99049.88;130411;1260;106939;-84
2024/04/17 13:44:41;;;;;;;;;;;;;;;7.15;79.20;99050.80;130356;1262;107711;-81
2024/04/17 13:47:44;;;;;;;;;;;;;;;7.21;78.94;99050.63;130516;1259;106932;-82
2024/04/17 13:50:57;;;;;;;;;;;;;;;7.26;79.31;99053.34;130341;1273;108609;-84
2024/04/17 13:54:00;;;;;;;;;;;;;;;7.29;78.54;99053.52;130391;1260;109395;-84
2024/04/17 13:57:05;;;;;;;;;;;;;;;7.47;79.10;99052.89;130446;1258;108303;-85
2024/04/17 14:00:09;;;;;;;;;;;;;;;7.70;78.86;99055.71;130488;1260;107559;-85
2024/04/17 14:03:15;;;;;;;;;;;;;;;7.78;77.85;99056.29;130436;1262;107698;-80
2024/04/17 14:06:20;;;;;;;;;;;;;;;7.80;77.97;99057.66;130512;1262;106223;-85
2024/04/17 14:09:24;;;;;;;;;;;;;;;7.87;78.13;99064.73;130450;1261;108751;-82
2024/04/17 14:12:28;;;;;;;;;;;;;;;7.93;77.36;99067.84;130400;1262;108434;-85
2024/04/17 14:15:31;;;;;;;;;;;;;;;7.83;76.25;99069.11;130697;1262;107118;-86
2024/04/17 14:18:35;;;;;;;;;;;;;;;7.66;76.16;99073.77;130535;1260;108344;-83
2024/04/17 14:21:39;;;;;;;;;;;;;;;7.64;76.55;99075.11;130483;1265;107653;-81
2024/04/17 14:24:43;;;;;;;;;;;;;;;7.68;76.65;99080.90;130163;1262;107760;-80
2024/04/17 14:27:47;;;;;;;;;;;;;;;7.70;76.36;99074.50;130316;1260;107748;-80
2024/04/17 14:30:55;;;;;;;;;;;;;;;7.78;76.21;99078.07;130366;1262;106375;-80
2024/04/17 14:33:59;;;;;;;;;;;;;;;7.83;75.81;99082.16;130260;1262;107527;-80
2024/04/17 14:37:03;;;;;;;;;;;;;;;7.81;75.18;99086.63;130389;1262;107701;-80
2024/04/17 14:40:07;;;;;;;;;;;;;;;7.77;75.29;99079.98;131455;1259;108704;-79
2024/04/17 14:43:11;;;;;;;;;;;;;;;7.79;75.25;99086.83;131471;1262;108618;-80
2024/04/17 14:46:15;;;;;;;;;;;;;;;7.86;75.52;99082.56;130015;1262;288391;-77
2024/04/17 14:49:18;;;;;;;;;;;;;;;8.00;75.94;99085.52;130329;1259;106424;-77
2024/04/17 14:52:22;;;;;;;;;;;;;;;8.09;75.64;99088.40;130308;1262;108735;-77
2024/04/17 14:55:26;;;;;;;;;;;;;;;8.16;75.68;99094.79;130406;1260;106796;-81
2024/04/17 14:58:30;;;;;;;;;;;;;;;8.13;74.73;99093.36;130466;1262;108302;-79
2024/04/17 15:01:34;;;;;;;;;;;;;;;8.03;74.68;99091.92;130394;1260;107848;-78
2024/04/17 15:04:38;;;;;;;;;;;;;;;7.98;75.12;99094.52;130420;1262;106587;-79
2024/04/17 15:07:41;;;;;;;;;;;;;;;7.91;75.23;99096.05;130181;1259;107875;-77
2024/04/17 15:10:52;;;;;;;;;;;;;;;7.84;75.06;99094.77;131797;1259;108699;-79
2024/04/17 15:13:56;;;;;;;;;;;;;;;7.85;75.43;99097.55;131751;1259;108560;-78
2024/04/17 15:17:00;;;;;;;;;;;;;;;7.92;75.55;99101.91;130735;1259;107560;-77
2024/04/17 15:20:04;;;;;;;;;;;;;;;7.96;75.36;99100.06;130184;1265;108104;-78
2024/04/17 15:23:07;;;;;;;;;;;;;;;8.02;75.07;99102.06;130137;1265;107713;-78
2024/04/17 15:26:12;;;;;;;;;;;;;;;8.00;74.90;99102.79;130096;1265;108600;-77
2024/04/17 15:29:16;;;;;;;;;;;;;;;8.05;75.42;99101.63;130376;1262;108606;-80
2024/04/17 15:32:20;;;;;;;;;;;;;;;8.16;75.11;99100.41;130511;1261;108759;-77
2024/04/17 15:35:23;;;;;;;;;;;;;;;8.17;75.10;99100.10;130345;1262;106935;-78
2024/04/17 15:38:28;;;;;;;;;;;;;;;8.19;74.86;99100.81;130374;1262;107735;-78
2024/04/17 15:41:32;;;;;;;;;;;;;;;8.18;75.25;99106.77;130325;1263;106815;-78
2024/04/17 15:44:36;;;;;;;;;;;;;;;8.13;74.66;99107.67;130354;1270;108210;-80